Time;durP1;ratioP1;P1;durP2;ratioP2;P2;SDS_P1;SDS_P2;PMS_P1;PMS_P2;Temp;Humidity;BMP_temperature;BMP_pressure;BME280_temperature;BME280_humidity;BME280_pressure;Samples;Min_cycle;Max_cycle;Signal;HPM_P1;HPM_P2
2023/04/20 00:02:55;;;;;;;;;;;7.70;47.00;;;;;;4051542;29;20000;-86
2023/04/20 00:05:39;;;;;;;;;;;7.70;47.00;;;;;;4049898;29;19916;-87
2023/04/20 00:10:42;;;;;;;;;;;7.60;46.20;;;;;;4042894;29;20285;-85
2023/04/20 00:12:55;;;;;;;;;;;7.60;46.20;;;;;;4039616;29;19907;-86
2023/04/20 00:14:56;;;;;;;;;;;7.60;45.40;;;;;;4059091;29;19941;-85
2023/04/20 00:17:12;;;;;;;;;;;7.60;45.60;;;;;;4102600;28;19949;-86
2023/04/20 00:19:32;;;;;;;;;;;7.70;45.80;;;;;;4106431;28;19902;-88
2023/04/20 00:21:41;;;;;;;;;;;7.70;46.20;;;;;;4119494;28;19980;-85
2023/04/20 00:24:15;;;;;;;;;;;7.70;46.30;;;;;;4092521;28;19910;-85
2023/04/20 00:26:53;;;;;;;;;;;7.70;46.50;;;;;;4093277;28;20340;-85
2023/04/20 00:29:32;;;;;;;;;;;;;;;;;;;;;
2023/04/20 00:32:13;;;;;;;;;;;7.70;46.90;;;;;;4114393;28;19960;-86
2023/04/20 00:34:52;;;;;;;;;;;7.70;47.20;;;;;;4113939;28;19965;-85
2023/04/20 00:37:36;;;;;;;;;;;7.70;47.20;;;;;;4118339;28;20332;-86
2023/04/20 00:39:55;;;;;;;;;;;7.70;47.90;;;;;;4117625;28;19910;-85
2023/04/20 00:42:31;;;;;;;;;;;7.70;47.90;;;;;;4103409;28;19913;-85
2023/04/20 00:44:55;;;;;;;;;;;;;;;;;;;;;
2023/04/20 00:47:34;;;;;;;;;;;7.60;48.00;;;;;;4050922;28;20455;-85
2023/04/20 00:50:21;;;;;;;;;;;7.50;47.40;;;;;;4106232;28;19945;-84
2023/04/20 00:52:59;;;;;;;;;;;7.50;47.40;;;;;;4096978;28;19950;-86
2023/04/20 00:55:13;;;;;;;;;;;7.50;47.40;;;;;;4083344;28;19917;-85
2023/04/20 01:00:39;;;;;;;;;;;7.30;46.80;;;;;;4118401;28;19941;-87
2023/04/20 01:03:06;;;;;;;;;;;7.40;47.40;;;;;;4120120;28;19949;-85
2023/04/20 01:05:35;;;;;;;;;;;7.30;47.40;;;;;;4120266;28;19914;-85
2023/04/20 01:08:11;;;;;;;;;;;7.30;47.50;;;;;;4100562;28;20199;-85
2023/04/20 01:10:40;;;;;;;;;;;7.30;47.20;;;;;;4109854;28;19914;-86
2023/04/20 01:13:29;;;;;;;;;;;7.20;46.40;;;;;;4119006;28;20001;-86
2023/04/20 01:16:12;;;;;;;;;;;7.20;46.70;;;;;;4110761;28;19988;-84
2023/04/20 01:19:08;;;;;;;;;;;7.20;47.10;;;;;;4126395;28;20786;-85
2023/04/20 01:21:43;;;;;;;;;;;7.20;47.10;;;;;;4098817;28;19928;-85
2023/04/20 01:24:23;;;;;;;;;;;7.10;46.80;;;;;;4107850;28;20257;-85
2023/04/20 01:27:10;;;;;;;;;;;7.10;46.70;;;;;;4116673;28;19913;-84
2023/04/20 01:30:09;;;;;;;;;;;7.20;46.60;;;;;;4080286;29;19992;-85
2023/04/20 01:32:58;;;;;;;;;;;7.20;46.80;;;;;;4075780;29;19911;-86
2023/04/20 01:40:41;;;;;;;;;;;7.20;47.80;;;;;;4070531;29;20281;-84
2023/04/20 01:43:07;;;;;;;;;;;7.10;47.80;;;;;;4048835;29;20002;-85
2023/04/20 01:45:37;;;;;;;;;;;7.10;47.80;;;;;;4049871;29;19979;-84
2023/04/20 01:48:07;;;;;;;;;;;7.10;48.00;;;;;;4062508;29;20275;-86
2023/04/20 01:50:42;;;;;;;;;;;7.10;47.70;;;;;;4026686;29;20596;-85
2023/04/20 01:53:06;;;;;;;;;;;7.10;47.90;;;;;;4021198;29;19935;-86
2023/04/20 01:55:34;;;;;;;;;;;7.00;47.90;;;;;;3988981;29;19973;-85
2023/04/20 01:57:44;;;;;;;;;;;7.00;47.80;;;;;;4006192;29;19934;-86
2023/04/20 01:59:52;;;;;;;;;;;6.90;48.10;;;;;;4070448;29;19918;-85
2023/04/20 02:02:18;;;;;;;;;;;6.90;48.10;;;;;;4055203;29;20330;-84
2023/04/20 02:05:02;;;;;;;;;;;;;;;;;;;;;
2023/04/20 02:07:32;;;;;;;;;;;7.00;48.70;;;;;;4108455;28;20446;-83
2023/04/20 02:09:48;;;;;;;;;;;7.00;48.90;;;;;;4114474;28;19925;-85
2023/04/20 02:21:02;;;;;;;;;;;6.80;48.20;;;;;;3987136;29;19968;-85
2023/04/20 02:23:40;;;;;;;;;;;;;;;;;;;;;
2023/04/20 02:25:55;;;;;;;;;;;6.80;48.00;;;;;;4019720;29;19960;-85
2023/04/20 02:28:37;;;;;;;;;;;6.90;48.20;;;;;;4019963;29;19904;-85
2023/04/20 02:34:08;;;;;;;;;;;7.00;48.20;;;;;;4033594;29;19907;-85
2023/04/20 02:36:09;;;;;;;;;;;6.90;48.40;;;;;;4034456;29;19912;-83
2023/04/20 02:38:32;;;;;;;;;;;6.80;48.60;;;;;;4033075;29;19919;-85
2023/04/20 02:40:54;;;;;;;;;;;6.90;48.60;;;;;;4005418;29;19919;-84
2023/04/20 02:43:07;;;;;;;;;;;6.90;48.60;;;;;;4017327;29;19916;-85
2023/04/20 02:45:36;;;;;;;;;;;;;;;;;;;;;
2023/04/20 02:48:36;;;;;;;;;;;6.90;48.90;;;;;;3994461;29;19910;-85
2023/04/20 02:51:40;;;;;;;;;;;7.00;49.00;;;;;;3961723;29;19954;-85
2023/04/20 02:55:32;;;;;;;;;;;7.10;49.50;;;;;;4168652;23;19935;-84
2023/04/20 02:57:52;;;;;;;;;;;6.90;49.20;;;;;;4152280;28;19932;-86
2023/04/20 03:00:02;;;;;;;;;;;6.80;48.90;;;;;;4126455;28;19902;-85
2023/04/20 03:02:12;;;;;;;;;;;6.90;48.50;;;;;;4117915;28;20730;-86
2023/04/20 03:04:43;;;;;;;;;;;6.90;48.80;;;;;;4132287;28;19913;-84
2023/04/20 03:09:48;;;;;;;;;;;6.80;48.90;;;;;;4117286;28;20402;-85
2023/04/20 03:12:42;;;;;;;;;;;6.80;49.00;;;;;;4119880;28;19917;-84
2023/04/20 03:15:14;;;;;;;;;;;6.80;49.10;;;;;;4084443;29;19914;-84
2023/04/20 03:17:35;;;;;;;;;;;6.70;49.10;;;;;;4098383;29;20417;-85
2023/04/20 03:19:56;;;;;;;;;;;6.70;49.60;;;;;;4085676;29;19911;-84
2023/04/20 03:22:20;;;;;;;;;;;6.70;50.00;;;;;;4099142;28;19910;-85
2023/04/20 03:24:41;;;;;;;;;;;6.70;50.70;;;;;;4103063;28;19959;-84
2023/04/20 03:27:05;;;;;;;;;;;6.70;51.20;;;;;;4088190;29;20431;-84
2023/04/20 03:29:26;;;;;;;;;;;6.70;51.20;;;;;;4099328;29;20364;-86
2023/04/20 03:31:47;;;;;;;;;;;6.70;51.60;;;;;;4085744;29;19913;-85
2023/04/20 03:34:08;;;;;;;;;;;6.60;51.40;;;;;;4086351;28;19938;-84
2023/04/20 03:36:32;;;;;;;;;;;6.60;51.40;;;;;;4085838;29;19907;-84
2023/04/20 03:38:53;;;;;;;;;;;6.60;51.20;;;;;;4087768;29;19906;-83
2023/04/20 03:41:14;;;;;;;;;;;6.50;51.50;;;;;;4098119;28;19921;-84
2023/04/20 03:43:35;;;;;;;;;;;6.50;51.80;;;;;;4088264;29;19903;-84
2023/04/20 03:45:58;;;;;;;;;;;6.50;51.90;;;;;;4090863;29;19954;-85
2023/04/20 03:48:19;;;;;;;;;;;6.50;52.00;;;;;;4086648;29;19902;-85
2023/04/20 03:50:26;;;;;;;;;;;6.50;52.00;;;;;;4087549;28;19910;-85
2023/04/20 03:52:53;;;;;;;;;;;6.50;51.80;;;;;;4112535;28;19963;-87
2023/04/20 03:55:03;;;;;;;;;;;6.40;51.50;;;;;;4114492;28;19914;-84
2023/04/20 03:57:16;;;;;;;;;;;6.30;51.40;;;;;;4095914;28;19927;-87
2023/04/20 03:59:48;;;;;;;;;;;6.40;51.40;;;;;;4094512;28;19923;-84
2023/04/20 04:02:10;;;;;;;;;;;;;;;;;;;;;
2023/04/20 04:04:51;;;;;;;;;;;6.40;52.00;;;;;;4118539;28;19952;-84
2023/04/20 04:07:25;;;;;;;;;;;6.40;51.90;;;;;;4129272;28;19957;-86
2023/04/20 04:09:52;;;;;;;;;;;6.30;52.10;;;;;;4130719;28;19913;-85
2023/04/20 04:12:00;;;;;;;;;;;6.30;52.30;;;;;;4133020;28;19956;-83
2023/04/20 04:14:09;;;;;;;;;;;6.30;52.30;;;;;;4135354;23;20348;-86
2023/04/20 04:16:22;;;;;;;;;;;6.30;52.70;;;;;;4096927;28;19910;-84
2023/04/20 04:21:27;;;;;;;;;;;6.30;53.20;;;;;;4100466;29;19913;-86
2023/04/20 04:25:32;;;;;;;;;;;6.20;54.20;;;;;;4181022;23;19922;-83
2023/04/20 04:27:59;;;;;;;;;;;6.20;54.20;;;;;;4077091;29;19965;-84
2023/04/20 04:30:14;;;;;;;;;;;6.10;54.00;;;;;;4072333;29;19907;-85
2023/04/20 04:32:43;;;;;;;;;;;6.10;53.80;;;;;;4085028;29;19910;-85
2023/04/20 04:35:12;;;;;;;;;;;6.10;53.80;;;;;;4086630;29;19914;-85
2023/04/20 04:37:43;;;;;;;;;;;6.10;53.90;;;;;;4071541;29;19950;-85
2023/04/20 04:40:04;;;;;;;;;;;6.10;54.30;;;;;;4099361;28;19910;-87
2023/04/20 04:42:23;;;;;;;;;;;6.10;54.60;;;;;;4071411;29;20387;-85
2023/04/20 04:44:36;;;;;;;;;;;6.10;54.30;;;;;;4099587;28;19960;-85
2023/04/20 04:47:22;;;;;;;;;;;;;;;;;;;;;
2023/04/20 04:50:09;;;;;;;;;;;6.10;54.30;;;;;;4082097;29;20399;-87
2023/04/20 04:52:13;;;;;;;;;;;6.00;54.60;;;;;;4079593;29;19954;-85
2023/04/20 04:54:46;;;;;;;;;;;6.00;54.80;;;;;;4048915;29;19950;-87
2023/04/20 04:56:57;;;;;;;;;;;6.10;54.30;;;;;;4062635;29;20381;-84
2023/04/20 04:59:20;;;;;;;;;;;6.00;54.40;;;;;;4080108;29;19915;-84
2023/04/20 05:01:45;;;;;;;;;;;6.00;54.60;;;;;;4066369;29;19903;-85
2023/04/20 05:04:12;;;;;;;;;;;6.00;54.90;;;;;;4079219;29;20474;-86
2023/04/20 05:06:13;;;;;;;;;;;6.10;54.90;;;;;;4081316;29;19917;-85
2023/04/20 05:08:13;;;;;;;;;;;6.00;54.70;;;;;;4065555;29;19975;-85
2023/04/20 05:10:14;;;;;;;;;;;6.10;54.60;;;;;;4050665;29;19922;-85
2023/04/20 05:12:14;;;;;;;;;;;6.00;54.70;;;;;;4070167;29;20354;-87
2023/04/20 05:14:15;;;;;;;;;;;6.10;54.80;;;;;;4064235;29;19930;-85
2023/04/20 05:16:18;;;;;;;;;;;6.10;54.80;;;;;;4061611;29;19942;-85
2023/04/20 05:18:18;;;;;;;;;;;6.10;54.90;;;;;;4076466;29;19902;-85
2023/04/20 05:20:19;;;;;;;;;;;6.00;54.80;;;;;;4062925;29;19911;-87
2023/04/20 05:22:20;;;;;;;;;;;6.10;54.80;;;;;;4077244;29;19991;-85
2023/04/20 05:24:20;;;;;;;;;;;6.10;54.70;;;;;;4067530;29;19903;-85
2023/04/20 05:26:21;;;;;;;;;;;6.10;54.70;;;;;;4092257;28;19918;-86
2023/04/20 05:28:22;;;;;;;;;;;6.00;54.80;;;;;;4096564;28;19907;-86
2023/04/20 05:30:23;;;;;;;;;;;6.10;55.20;;;;;;4101535;28;19910;-85
2023/04/20 05:32:23;;;;;;;;;;;6.00;55.00;;;;;;4116170;28;20286;-85
2023/04/20 05:34:24;;;;;;;;;;;6.10;55.00;;;;;;4112383;28;19957;-87
2023/04/20 05:36:26;;;;;;;;;;;6.20;55.00;;;;;;4097547;29;20380;-84
2023/04/20 05:38:26;;;;;;;;;;;6.20;55.10;;;;;;4098730;28;19914;-86
2023/04/20 05:40:27;;;;;;;;;;;6.20;55.30;;;;;;4118704;28;20024;-86
2023/04/20 05:42:29;;;;;;;;;;;6.30;55.30;;;;;;4098821;29;19965;-84
2023/04/20 05:44:32;;;;;;;;;;;6.20;55.40;;;;;;4084890;29;19903;-85
2023/04/20 05:46:36;;;;;;;;;;;6.30;55.30;;;;;;4097187;29;19909;-85
2023/04/20 05:48:37;;;;;;;;;;;6.20;55.10;;;;;;4114076;28;20372;-85
2023/04/20 05:50:41;;;;;;;;;;;6.20;55.20;;;;;;4099115;28;20421;-85
2023/04/20 05:52:41;;;;;;;;;;;6.30;55.10;;;;;;4114939;28;19925;-85
2023/04/20 05:54:42;;;;;;;;;;;6.40;55.30;;;;;;4112293;28;19929;-85
2023/04/20 05:56:43;;;;;;;;;;;6.40;55.40;;;;;;4083957;29;19910;-85
2023/04/20 05:58:44;;;;;;;;;;;6.40;55.20;;;;;;4100416;28;19921;-86
2023/04/20 06:00:45;;;;;;;;;;;6.40;55.10;;;;;;4098283;28;19914;-84
2023/04/20 06:02:46;;;;;;;;;;;6.50;55.20;;;;;;4104088;28;19914;-85
2023/04/20 06:04:55;;;;;;;;;;;6.30;55.10;;;;;;4080505;29;20500;-85
2023/04/20 06:06:56;;;;;;;;;;;6.40;55.30;;;;;;4114952;28;19902;-85
2023/04/20 06:08:57;;;;;;;;;;;6.50;55.50;;;;;;4094173;29;19915;-85
2023/04/20 06:10:57;;;;;;;;;;;6.60;55.40;;;;;;4082036;29;20010;-85
2023/04/20 06:12:58;;;;;;;;;;;6.60;55.20;;;;;;4080224;29;20454;-86
2023/04/20 06:14:59;;;;;;;;;;;6.70;54.80;;;;;;4085579;29;19910;-84
2023/04/20 06:17:05;;;;;;;;;;;6.70;55.20;;;;;;4097385;28;19917;-85
2023/04/20 06:19:06;;;;;;;;;;;6.80;55.20;;;;;;4106151;28;19981;-87
2023/04/20 06:21:10;;;;;;;;;;;6.80;54.80;;;;;;4085368;29;20337;-85
2023/04/20 06:23:11;;;;;;;;;;;6.90;54.60;;;;;;4113936;28;19913;-86
2023/04/20 06:25:12;;;;;;;;;;;7.00;54.40;;;;;;4108224;28;20292;-84
2023/04/20 06:27:13;;;;;;;;;;;6.90;53.70;;;;;;4103828;28;19914;-86
2023/04/20 06:29:13;;;;;;;;;;;6.90;54.20;;;;;;4100667;29;19933;-88
2023/04/20 06:31:27;;;;;;;;;;;7.00;54.10;;;;;;4086674;29;19911;-86
2023/04/20 06:33:28;;;;;;;;;;;7.00;53.80;;;;;;4085029;29;19962;-84
2023/04/20 06:35:29;;;;;;;;;;;7.00;53.60;;;;;;4115013;28;19910;-87
2023/04/20 06:37:49;;;;;;;;;;;7.10;53.40;;;;;;4118441;28;19921;-86
2023/04/20 06:39:56;;;;;;;;;;;7.10;53.80;;;;;;4088715;29;19930;-84
2023/04/20 06:41:58;;;;;;;;;;;7.10;53.50;;;;;;4084325;29;19903;-85
2023/04/20 06:44:06;;;;;;;;;;;7.10;53.50;;;;;;4100806;28;19914;-86
2023/04/20 06:46:26;;;;;;;;;;;7.10;53.90;;;;;;4118615;28;19973;-85
2023/04/20 06:48:47;;;;;;;;;;;7.20;54.50;;;;;;4116144;28;19909;-86
2023/04/20 06:51:07;;;;;;;;;;;7.20;54.00;;;;;;4103359;28;19913;-85
2023/04/20 06:53:28;;;;;;;;;;;7.30;54.50;;;;;;4102156;28;19922;-87
2023/04/20 06:55:48;;;;;;;;;;;7.30;54.10;;;;;;4102962;28;19911;-85
2023/04/20 06:58:09;;;;;;;;;;;7.40;54.20;;;;;;4102340;28;19921;-84
2023/04/20 07:00:30;;;;;;;;;;;7.40;54.90;;;;;;4102354;28;19948;-85
2023/04/20 07:02:50;;;;;;;;;;;7.40;54.40;;;;;;4096857;28;19997;-88
2023/04/20 07:05:11;;;;;;;;;;;7.60;54.50;;;;;;4101725;28;19906;-85
2023/04/20 07:07:32;;;;;;;;;;;7.60;54.00;;;;;;4104145;28;19902;-85
2023/04/20 07:09:53;;;;;;;;;;;7.70;53.80;;;;;;4116218;28;19953;-84
2023/04/20 07:12:14;;;;;;;;;;;7.50;54.00;;;;;;4098076;28;19996;-86
2023/04/20 07:14:35;;;;;;;;;;;7.60;53.80;;;;;;4102056;28;19989;-86
2023/04/20 07:16:55;;;;;;;;;;;7.70;54.20;;;;;;4114520;28;19906;-86
2023/04/20 07:19:16;;;;;;;;;;;7.70;53.20;;;;;;4115742;28;19910;-85
2023/04/20 07:21:16;;;;;;;;;;;7.80;53.50;;;;;;4100553;28;20411;-85
2023/04/20 07:23:26;;;;;;;;;;;7.60;53.50;;;;;;4088300;29;20296;-85
2023/04/20 07:25:27;;;;;;;;;;;7.80;53.90;;;;;;4085272;29;19977;-85
2023/04/20 07:27:28;;;;;;;;;;;7.70;54.10;;;;;;4099447;28;20586;-83
2023/04/20 07:29:31;;;;;;;;;;;7.80;53.80;;;;;;4094616;28;19914;-85
2023/04/20 07:31:32;;;;;;;;;;;7.70;53.30;;;;;;4078934;29;20465;-86
2023/04/20 07:33:34;;;;;;;;;;;7.70;54.00;;;;;;4102627;28;20241;-86
2023/04/20 07:35:36;;;;;;;;;;;7.70;54.60;;;;;;4087583;29;20507;-87
2023/04/20 07:37:37;;;;;;;;;;;7.70;54.30;;;;;;4065945;29;19915;-84
2023/04/20 07:39:38;;;;;;;;;;;7.70;54.90;;;;;;4073850;29;19945;-85
2023/04/20 07:41:38;;;;;;;;;;;7.70;54.50;;;;;;4085131;29;20353;-85
2023/04/20 07:43:40;;;;;;;;;;;7.60;54.20;;;;;;4085728;29;19910;-87
2023/04/20 07:45:41;;;;;;;;;;;7.60;54.30;;;;;;4068876;29;20096;-88
2023/04/20 07:47:50;;;;;;;;;;;7.60;54.10;;;;;;4090373;29;19910;-86
2023/04/20 07:49:52;;;;;;;;;;;7.70;54.60;;;;;;4083401;29;19914;-85
2023/04/20 07:51:53;;;;;;;;;;;7.80;55.00;;;;;;4097937;28;19940;-86
2023/04/20 07:53:55;;;;;;;;;;;7.80;55.00;;;;;;4083449;29;20456;-85
2023/04/20 07:55:55;;;;;;;;;;;7.70;54.90;;;;;;4099436;28;19921;-87
2023/04/20 07:57:56;;;;;;;;;;;7.70;55.20;;;;;;4076247;29;20361;-85
2023/04/20 07:59:57;;;;;;;;;;;7.80;55.10;;;;;;4061533;29;20001;-84
2023/04/20 08:02:00;;;;;;;;;;;7.80;55.20;;;;;;4097939;28;19906;-86
2023/04/20 08:04:01;;;;;;;;;;;7.70;55.00;;;;;;4098260;28;19921;-85
2023/04/20 08:06:02;;;;;;;;;;;7.70;54.80;;;;;;4099943;28;20517;-85
2023/04/20 08:08:03;;;;;;;;;;;7.70;55.00;;;;;;4068164;29;19974;-85
2023/04/20 08:10:04;;;;;;;;;;;7.80;55.60;;;;;;4084564;29;19910;-86
2023/04/20 08:12:25;;;;;;;;;;;7.80;54.90;;;;;;4083048;28;19918;-84
2023/04/20 08:14:25;;;;;;;;;;;7.90;55.10;;;;;;4067516;29;20382;-85
2023/04/20 08:16:46;;;;;;;;;;;7.90;55.30;;;;;;4100800;28;20356;-85
2023/04/20 08:19:09;;;;;;;;;;;7.90;55.20;;;;;;4087267;29;20531;-85
2023/04/20 08:21:30;;;;;;;;;;;8.00;54.90;;;;;;4096159;28;19966;-85
2023/04/20 08:23:56;;;;;;;;;;;8.00;55.00;;;;;;4084170;29;19902;-85
2023/04/20 08:26:17;;;;;;;;;;;8.10;55.60;;;;;;4107562;28;19918;-85
2023/04/20 08:28:37;;;;;;;;;;;8.20;55.30;;;;;;4110220;28;19914;-89
2023/04/20 08:30:58;;;;;;;;;;;8.20;55.20;;;;;;4114739;28;20004;-86
2023/04/20 08:33:18;;;;;;;;;;;8.20;54.80;;;;;;4097871;28;20006;-85
2023/04/20 08:35:42;;;;;;;;;;;8.30;54.90;;;;;;4101824;28;19974;-85
2023/04/20 08:38:03;;;;;;;;;;;8.20;55.20;;;;;;4115665;28;19989;-84
2023/04/20 08:40:24;;;;;;;;;;;8.20;55.30;;;;;;4118153;28;19988;-85
2023/04/20 08:42:45;;;;;;;;;;;8.30;56.00;;;;;;4115727;28;19910;-85
2023/04/20 08:45:06;;;;;;;;;;;8.20;55.40;;;;;;4114427;28;20272;-85
2023/04/20 08:47:26;;;;;;;;;;;8.10;54.70;;;;;;4116194;28;19912;-87
2023/04/20 08:49:49;;;;;;;;;;;8.10;55.20;;;;;;4117393;28;19953;-85
2023/04/20 08:51:50;;;;;;;;;;;8.20;55.70;;;;;;4086863;29;20318;-85
2023/04/20 08:53:51;;;;;;;;;;;8.20;55.90;;;;;;4086445;29;19922;-86
2023/04/20 08:55:52;;;;;;;;;;;8.20;55.90;;;;;;4089374;29;19922;-85
2023/04/20 08:57:52;;;;;;;;;;;8.20;55.80;;;;;;4083299;29;19918;-86
2023/04/20 08:59:54;;;;;;;;;;;8.20;56.00;;;;;;4082663;29;20510;-85
2023/04/20 09:01:54;;;;;;;;;;;8.20;55.80;;;;;;4103975;28;19906;-85
2023/04/20 09:03:55;;;;;;;;;;;8.30;55.70;;;;;;4097584;28;19917;-86
2023/04/20 09:05:56;;;;;;;;;;;8.30;55.30;;;;;;4098801;28;19914;-85
2023/04/20 09:07:58;;;;;;;;;;;8.40;55.10;;;;;;4115566;28;20241;-85
2023/04/20 09:10:02;;;;;;;;;;;8.40;55.70;;;;;;4113588;28;19902;-86
2023/04/20 09:12:05;;;;;;;;;;;8.50;55.70;;;;;;4096476;28;19910;-85
2023/04/20 09:14:11;;;;;;;;;;;8.50;55.80;;;;;;4078956;29;19940;-85
2023/04/20 09:16:14;;;;;;;;;;;8.50;55.30;;;;;;4096779;28;20699;-87
2023/04/20 09:18:17;;;;;;;;;;;8.40;55.50;;;;;;4113186;28;19989;-85
2023/04/20 09:20:28;;;;;;;;;;;8.50;56.10;;;;;;4097584;28;19909;-85
2023/04/20 09:22:30;;;;;;;;;;;8.60;56.10;;;;;;4087897;29;19909;-85
2023/04/20 09:24:32;;;;;;;;;;;8.60;56.60;;;;;;4117639;28;19902;-85
2023/04/20 09:26:52;;;;;;;;;;;8.70;56.20;;;;;;4111912;28;19913;-85
2023/04/20 09:28:53;;;;;;;;;;;8.60;56.40;;;;;;4097133;28;20027;-85
2023/04/20 09:31:18;;;;;;;;;;;8.70;56.60;;;;;;4115674;28;19914;-86
2023/04/20 09:33:38;;;;;;;;;;;8.80;56.40;;;;;;4118020;28;19933;-85
2023/04/20 09:35:41;;;;;;;;;;;8.90;56.80;;;;;;4099597;28;19910;-85
2023/04/20 09:37:55;;;;;;;;;;;8.80;56.50;;;;;;4101133;28;20370;-85
2023/04/20 09:40:17;;;;;;;;;;;8.90;56.70;;;;;;4114051;28;19914;-85
2023/04/20 09:42:18;;;;;;;;;;;9.00;56.20;;;;;;4098085;28;19910;-86
2023/04/20 09:44:39;;;;;;;;;;;8.70;55.40;;;;;;4099867;28;20014;-84
2023/04/20 09:46:59;;;;;;;;;;;8.80;55.70;;;;;;4112759;28;19929;-87
2023/04/20 09:49:29;;;;;;;;;;;8.80;56.10;;;;;;4100456;28;19918;-87
2023/04/20 09:51:49;;;;;;;;;;;8.70;56.20;;;;;;4125220;28;19894;-87
2023/04/20 09:54:11;;;;;;;;;;;8.70;56.60;;;;;;4107609;28;20012;-86
2023/04/20 09:56:33;;;;;;;;;;;8.70;56.70;;;;;;4119032;28;19914;-84
2023/04/20 09:58:54;;;;;;;;;;;8.60;57.00;;;;;;4116684;28;19913;-85
2023/04/20 10:01:18;;;;;;;;;;;8.80;57.20;;;;;;4118514;28;19985;-87
2023/04/20 10:03:42;;;;;;;;;;;8.60;57.50;;;;;;4105416;28;20004;-86
2023/04/20 10:06:03;;;;;;;;;;;8.60;57.90;;;;;;4117230;28;19902;-85
2023/04/20 10:08:24;;;;;;;;;;;8.60;57.80;;;;;;4107441;28;19925;-85
2023/04/20 10:10:48;;;;;;;;;;;8.70;58.10;;;;;;4104341;28;19915;-85
2023/04/20 10:13:09;;;;;;;;;;;8.70;57.70;;;;;;4114470;28;19910;-89
2023/04/20 10:15:13;;;;;;;;;;;8.60;58.00;;;;;;4104556;28;19997;-85
2023/04/20 10:17:13;;;;;;;;;;;8.70;58.30;;;;;;4097828;28;19988;-85
2023/04/20 10:19:14;;;;;;;;;;;8.80;58.50;;;;;;4087738;29;20370;-86
2023/04/20 10:21:15;;;;;;;;;;;8.80;58.70;;;;;;4103270;28;20387;-86
2023/04/20 10:23:19;;;;;;;;;;;8.90;58.60;;;;;;4097373;28;20328;-85
2023/04/20 10:25:22;;;;;;;;;;;8.90;58.70;;;;;;4094472;28;19994;-86
2023/04/20 10:27:22;;;;;;;;;;;9.00;59.00;;;;;;4097434;28;20376;-85
2023/04/20 10:29:26;;;;;;;;;;;9.00;58.70;;;;;;4116368;28;19910;-85
2023/04/20 10:31:37;;;;;;;;;;;9.00;58.50;;;;;;4102295;28;19911;-86
2023/04/20 10:34:07;;;;;;;;;;;9.10;58.50;;;;;;4115941;28;19914;-87
2023/04/20 10:36:08;;;;;;;;;;;9.10;58.60;;;;;;4028675;29;19916;-87
2023/04/20 10:38:10;;;;;;;;;;;9.20;59.00;;;;;;4021116;29;19942;-85
2023/04/20 10:40:39;;;;;;;;;;;9.30;58.90;;;;;;4022871;29;19916;-87
2023/04/20 10:42:48;;;;;;;;;;;9.10;57.70;;;;;;4008545;29;20266;-85
2023/04/20 10:45:20;;;;;;;;;;;;;;;;;;;;;
2023/04/20 10:47:43;;;;;;;;;;;9.40;58.60;;;;;;4025959;29;20523;-86
2023/04/20 10:50:07;;;;;;;;;;;9.50;58.70;;;;;;4021469;29;20091;-85
2023/04/20 10:52:10;;;;;;;;;;;9.60;59.30;;;;;;4020637;29;20244;-85
2023/04/20 10:54:11;;;;;;;;;;;9.60;58.50;;;;;;4039964;29;19919;-88
2023/04/20 10:56:12;;;;;;;;;;;9.80;58.80;;;;;;4089593;23;19925;-85
2023/04/20 10:58:22;;;;;;;;;;;9.90;58.20;;;;;;4108496;28;19906;-85
2023/04/20 11:00:26;;;;;;;;;;;9.90;58.10;;;;;;4130894;28;19956;-83
2023/04/20 11:02:29;;;;;;;;;;;10.00;57.50;;;;;;4147293;28;19913;-83
2023/04/20 11:04:31;;;;;;;;;;;10.20;57.80;;;;;;4115943;28;20474;-84
2023/04/20 11:06:32;;;;;;;;;;;10.20;56.90;;;;;;4133204;28;19924;-84
2023/04/20 11:08:38;;;;;;;;;;;10.30;57.00;;;;;;4129207;28;19917;-85
2023/04/20 11:10:41;;;;;;;;;;;10.30;56.80;;;;;;4132460;28;19917;-83
2023/04/20 11:12:41;;;;;;;;;;;10.30;56.50;;;;;;4130098;28;19969;-85
2023/04/20 11:14:52;;;;;;;;;;;10.40;56.40;;;;;;4111444;28;20364;-83
2023/04/20 11:16:53;;;;;;;;;;;10.40;57.30;;;;;;4129910;28;19992;-84
2023/04/20 11:19:20;;;;;;;;;;;10.40;57.40;;;;;;4129728;28;20008;-86
2023/04/20 11:21:41;;;;;;;;;;;10.60;57.60;;;;;;4132418;28;19910;-83
2023/04/20 11:24:02;;;;;;;;;;;10.60;57.60;;;;;;4145456;28;19921;-84
2023/04/20 11:26:32;;;;;;;;;;;10.60;57.80;;;;;;4133185;28;20012;-85
2023/04/20 11:29:08;;;;;;;;;;;10.70;57.60;;;;;;4133106;28;19913;-84
2023/04/20 11:31:34;;;;;;;;;;;10.70;57.70;;;;;;4131617;28;19909;-86
2023/04/20 11:33:56;;;;;;;;;;;10.80;58.40;;;;;;4144766;28;19924;-87
2023/04/20 11:36:21;;;;;;;;;;;10.90;58.00;;;;;;4144459;28;20435;-84
2023/04/20 11:38:42;;;;;;;;;;;10.90;58.50;;;;;;4130459;28;20020;-86
2023/04/20 11:41:08;;;;;;;;;;;10.90;56.70;;;;;;4117884;28;19910;-82
2023/04/20 11:43:09;;;;;;;;;;;10.80;56.50;;;;;;4125526;28;20265;-84
2023/04/20 11:45:32;;;;;;;;;;;10.80;56.10;;;;;;4131238;28;19960;-83
2023/04/20 11:47:53;;;;;;;;;;;10.90;56.40;;;;;;4130581;28;20017;-83
2023/04/20 11:49:58;;;;;;;;;;;10.90;55.90;;;;;;4113920;28;20081;-84
2023/04/20 11:52:18;;;;;;;;;;;10.90;56.20;;;;;;4132084;28;19908;-86
2023/04/20 11:54:39;;;;;;;;;;;10.80;55.90;;;;;;4130649;28;19921;-86
2023/04/20 11:57:00;;;;;;;;;;;11.00;56.50;;;;;;4141757;28;19910;-84
2023/04/20 11:59:20;;;;;;;;;;;10.90;55.60;;;;;;4139015;28;19910;-84
2023/04/20 12:01:41;;;;;;;;;;;11.00;56.20;;;;;;4130278;28;19996;-85
2023/04/20 12:04:05;;;;;;;;;;;11.10;57.70;;;;;;4143578;28;19945;-84
2023/04/20 12:06:26;;;;;;;;;;;11.20;56.80;;;;;;4126837;28;19914;-83
2023/04/20 12:08:49;;;;;;;;;;;11.20;56.90;;;;;;4128786;28;19944;-84
2023/04/20 12:11:10;;;;;;;;;;;11.30;55.80;;;;;;4130632;28;19996;-83
2023/04/20 12:13:31;;;;;;;;;;;11.20;55.30;;;;;;4130039;28;19921;-84
2023/04/20 12:15:46;;;;;;;;;;;11.20;55.60;;;;;;4131445;28;19985;-85
2023/04/20 12:17:46;;;;;;;;;;;11.30;55.60;;;;;;4113841;28;19902;-84
2023/04/20 12:19:47;;;;;;;;;;;11.10;56.50;;;;;;4127229;28;20315;-85
2023/04/20 12:21:47;;;;;;;;;;;10.90;56.20;;;;;;4112956;28;20359;-84
2023/04/20 12:23:57;;;;;;;;;;;11.10;57.20;;;;;;4146250;28;19963;-85
2023/04/20 12:26:04;;;;;;;;;;;11.00;56.40;;;;;;4111344;28;19952;-84
2023/04/20 12:28:10;;;;;;;;;;;11.10;57.00;;;;;;4105381;28;19910;-86
2023/04/20 12:30:11;;;;;;;;;;;11.10;56.90;;;;;;4129781;28;19949;-82
2023/04/20 12:32:14;;;;;;;;;;;11.10;56.90;;;;;;4128639;28;19972;-85
2023/04/20 12:34:15;;;;;;;;;;;11.20;56.70;;;;;;4130379;28;20352;-84
2023/04/20 12:36:16;;;;;;;;;;;11.00;56.60;;;;;;4098200;28;19945;-84
2023/04/20 12:38:16;;;;;;;;;;;11.20;57.10;;;;;;4130736;28;20457;-83
2023/04/20 12:40:17;;;;;;;;;;;11.30;57.00;;;;;;4130140;28;19956;-84
2023/04/20 12:42:18;;;;;;;;;;;11.20;56.60;;;;;;4140450;28;19912;-83
2023/04/20 12:44:18;;;;;;;;;;;11.20;55.80;;;;;;4142785;28;19952;-84
2023/04/20 12:46:19;;;;;;;;;;;11.20;56.90;;;;;;4141455;28;19909;-85
2023/04/20 12:48:21;;;;;;;;;;;11.20;56.60;;;;;;4157821;28;19901;-85
2023/04/20 12:50:21;;;;;;;;;;;11.20;55.40;;;;;;4143767;28;19933;-83
2023/04/20 12:52:22;;;;;;;;;;;11.10;55.20;;;;;;4131656;28;20347;-85
2023/04/20 12:54:23;;;;;;;;;;;11.10;55.60;;;;;;4129995;28;19956;-85
2023/04/20 12:56:23;;;;;;;;;;;11.20;56.50;;;;;;4132084;28;19913;-84
2023/04/20 12:58:24;;;;;;;;;;;11.20;55.90;;;;;;4133335;28;19941;-85
2023/04/20 13:00:25;;;;;;;;;;;11.10;55.40;;;;;;4132957;28;19917;-83
2023/04/20 13:02:25;;;;;;;;;;;11.30;55.40;;;;;;4117944;28;19934;-82
2023/04/20 13:04:26;;;;;;;;;;;11.30;55.30;;;;;;4116751;28;19914;-84
2023/04/20 13:06:26;;;;;;;;;;;11.40;55.40;;;;;;4117375;28;19909;-84
2023/04/20 13:08:27;;;;;;;;;;;11.40;55.70;;;;;;4149384;28;19909;-85
2023/04/20 13:10:28;;;;;;;;;;;11.40;55.70;;;;;;4134008;28;19917;-84
2023/04/20 13:12:29;;;;;;;;;;;11.40;55.40;;;;;;4145252;28;19921;-86
2023/04/20 13:14:33;;;;;;;;;;;11.40;55.80;;;;;;4114103;28;19917;-84
2023/04/20 13:16:33;;;;;;;;;;;11.40;55.20;;;;;;4134876;28;19945;-84
2023/04/20 13:18:39;;;;;;;;;;;11.30;54.50;;;;;;4112419;28;19910;-85
2023/04/20 13:20:47;;;;;;;;;;;11.40;55.20;;;;;;4144266;28;19913;-84
2023/04/20 13:22:58;;;;;;;;;;;11.50;56.00;;;;;;4130565;28;19953;-85
2023/04/20 13:24:59;;;;;;;;;;;11.40;55.30;;;;;;4119232;28;19918;-84
2023/04/20 13:27:20;;;;;;;;;;;11.60;54.60;;;;;;4132142;28;19949;-84
2023/04/20 13:29:23;;;;;;;;;;;11.50;54.60;;;;;;4127975;28;19902;-85
2023/04/20 13:31:46;;;;;;;;;;;11.50;54.90;;;;;;4124912;28;19913;-86
2023/04/20 13:34:09;;;;;;;;;;;11.50;55.10;;;;;;4130288;28;19936;-86
2023/04/20 13:36:31;;;;;;;;;;;11.50;54.60;;;;;;4131571;28;19910;-83
2023/04/20 13:38:52;;;;;;;;;;;11.60;54.50;;;;;;4131224;28;19913;-85
2023/04/20 13:41:16;;;;;;;;;;;11.60;55.20;;;;;;4131197;28;20208;-86
2023/04/20 13:43:36;;;;;;;;;;;11.50;55.00;;;;;;4138113;28;19906;-85
2023/04/20 13:45:57;;;;;;;;;;;11.60;55.30;;;;;;4143366;28;19924;-85
2023/04/20 13:48:18;;;;;;;;;;;11.60;55.50;;;;;;4130917;28;19912;-85
2023/04/20 13:50:38;;;;;;;;;;;11.60;55.50;;;;;;4133676;28;19924;-85
2023/04/20 13:53:01;;;;;;;;;;;11.60;55.30;;;;;;4136076;28;19914;-84